sensor_id;sensor_type;location;lat;lon;timestamp;pressure;altitude;pressure_sealevel;temperature;humidity
37486;BME280;23341;50.296;18.960;2023-05-15T00:02:17;52367.72;;;-144.43;100.00
37486;BME280;23341;50.296;18.960;2023-05-15T00:07:22;52329.72;;;-144.43;100.00
37486;BME280;23341;50.296;18.960;2023-05-15T00:12:26;52305.72;;;-144.43;100.00
37486;BME280;23341;50.296;18.960;2023-05-15T00:17:32;52395.72;;;-144.43;100.00
37486;BME280;23341;50.296;18.960;2023-05-15T00:22:36;52361.72;;;-144.43;100.00
37486;BME280;23341;50.296;18.960;2023-05-15T00:27:41;52373.72;;;-144.43;100.00
37486;BME280;23341;50.296;18.960;2023-05-15T00:32:47;52363.72;;;-144.43;100.00
37486;BME280;23341;50.296;18.960;2023-05-15T00:37:52;52413.72;;;-144.43;100.00
37486;BME280;23341;50.296;18.960;2023-05-15T00:42:57;52403.72;;;-144.43;100.00
37486;BME280;23341;50.296;18.960;2023-05-15T00:48:06;52375.72;;;-144.43;100.00
37486;BME280;23341;50.296;18.960;2023-05-15T00:53:12;52385.72;;;-144.43;100.00
37486;BME280;23341;50.296;18.960;2023-05-15T00:58:20;52391.72;;;-144.43;100.00
37486;BME280;23341;50.296;18.960;2023-05-15T01:03:27;52397.72;;;-144.43;100.00
37486;BME280;23341;50.296;18.960;2023-05-15T01:08:37;52429.72;;;-144.43;100.00
37486;BME280;23341;50.296;18.960;2023-05-15T01:13:42;52373.72;;;-144.43;100.00
37486;BME280;23341;50.296;18.960;2023-05-15T01:18:48;52365.72;;;-144.43;100.00
37486;BME280;23341;50.296;18.960;2023-05-15T01:24:01;52389.72;;;-144.43;100.00
37486;BME280;23341;50.296;18.960;2023-05-15T01:29:13;52379.72;;;-144.43;100.00
37486;BME280;23341;50.296;18.960;2023-05-15T01:34:22;52411.72;;;-144.43;100.00
37486;BME280;23341;50.296;18.960;2023-05-15T01:39:32;52407.72;;;-144.43;100.00
37486;BME280;23341;50.296;18.960;2023-05-15T01:44:42;52405.72;;;-144.43;100.00
37486;BME280;23341;50.296;18.960;2023-05-15T01:49:50;52413.72;;;-144.43;100.00
37486;BME280;23341;50.296;18.960;2023-05-15T01:54:56;52401.72;;;-144.43;100.00
37486;BME280;23341;50.296;18.960;2023-05-15T02:00:04;52421.72;;;-144.43;100.00
37486;BME280;23341;50.296;18.960;2023-05-15T02:05:15;52389.72;;;-144.43;100.00
37486;BME280;23341;50.296;18.960;2023-05-15T02:10:21;52395.72;;;-144.43;100.00
37486;BME280;23341;50.296;18.960;2023-05-15T02:15:29;52379.72;;;-144.43;100.00
37486;BME280;23341;50.296;18.960;2023-05-15T02:20:34;52401.72;;;-144.43;100.00
37486;BME280;23341;50.296;18.960;2023-05-15T02:25:44;52417.72;;;-144.43;100.00
37486;BME280;23341;50.296;18.960;2023-05-15T02:30:55;52431.72;;;-144.43;100.00
37486;BME280;23341;50.296;18.960;2023-05-15T02:36:04;52463.72;;;-144.43;100.00
37486;BME280;23341;50.296;18.960;2023-05-15T02:41:10;52397.72;;;-144.43;100.00
37486;BME280;23341;50.296;18.960;2023-05-15T02:46:16;52413.72;;;-144.43;100.00
37486;BME280;23341;50.296;18.960;2023-05-15T02:51:22;52431.72;;;-144.43;100.00
37486;BME280;23341;50.296;18.960;2023-05-15T02:56:26;52465.72;;;-144.43;100.00
37486;BME280;23341;50.296;18.960;2023-05-15T03:01:32;52449.72;;;-144.43;100.00
37486;BME280;23341;50.296;18.960;2023-05-15T03:06:37;52505.72;;;-144.43;100.00
37486;BME280;23341;50.296;18.960;2023-05-15T03:11:42;52501.72;;;-144.43;100.00
37486;BME280;23341;50.296;18.960;2023-05-15T03:16:48;52457.72;;;-144.43;100.00
37486;BME280;23341;50.296;18.960;2023-05-15T03:21:52;52485.72;;;-144.43;100.00
37486;BME280;23341;50.296;18.960;2023-05-15T03:26:56;52473.72;;;-144.43;100.00
37486;BME280;23341;50.296;18.960;2023-05-15T03:32:02;52457.72;;;-144.43;100.00
37486;BME280;23341;50.296;18.960;2023-05-15T03:37:06;52417.72;;;-144.43;100.00
37486;BME280;23341;50.296;18.960;2023-05-15T03:42:11;52397.72;;;-144.43;100.00
37486;BME280;23341;50.296;18.960;2023-05-15T03:47:17;52397.72;;;-144.43;100.00
37486;BME280;23341;50.296;18.960;2023-05-15T03:52:22;52427.72;;;-144.43;100.00
37486;BME280;23341;50.296;18.960;2023-05-15T03:57:26;52423.72;;;-144.43;100.00
37486;BME280;23341;50.296;18.960;2023-05-15T04:02:32;52413.72;;;-144.43;100.00
37486;BME280;23341;50.296;18.960;2023-05-15T04:07:36;52447.72;;;-144.43;100.00
37486;BME280;23341;50.296;18.960;2023-05-15T04:12:41;52405.72;;;-144.43;100.00
37486;BME280;23341;50.296;18.960;2023-05-15T04:17:48;52441.72;;;-144.43;100.00
37486;BME280;23341;50.296;18.960;2023-05-15T04:22:54;52457.72;;;-144.43;100.00
37486;BME280;23341;50.296;18.960;2023-05-15T04:27:58;52475.72;;;-144.43;100.00
37486;BME280;23341;50.296;18.960;2023-05-15T04:33:04;52479.72;;;-144.43;100.00
37486;BME280;23341;50.296;18.960;2023-05-15T04:38:09;52493.72;;;-144.43;100.00
37486;BME280;23341;50.296;18.960;2023-05-15T04:43:13;52459.72;;;-144.43;100.00
37486;BME280;23341;50.296;18.960;2023-05-15T04:48:19;52469.72;;;-144.43;100.00
37486;BME280;23341;50.296;18.960;2023-05-15T04:53:24;52481.72;;;-144.43;100.00
37486;BME280;23341;50.296;18.960;2023-05-15T04:58:28;52521.72;;;-144.43;100.00
37486;BME280;23341;50.296;18.960;2023-05-15T05:03:33;52521.72;;;-144.43;100.00
37486;BME280;23341;50.296;18.960;2023-05-15T05:08:37;52535.72;;;-144.43;100.00
37486;BME280;23341;50.296;18.960;2023-05-15T05:13:42;52521.72;;;-144.43;100.00
37486;BME280;23341;50.296;18.960;2023-05-15T05:18:47;52503.72;;;-144.43;100.00
37486;BME280;23341;50.296;18.960;2023-05-15T05:23:52;52551.72;;;-144.43;100.00
37486;BME280;23341;50.296;18.960;2023-05-15T05:28:57;52581.75;;;-144.43;100.00
37486;BME280;23341;50.296;18.960;2023-05-15T05:34:02;52521.72;;;-144.43;100.00
37486;BME280;23341;50.296;18.960;2023-05-15T05:39:07;52615.75;;;-144.43;100.00
37486;BME280;23341;50.296;18.960;2023-05-15T05:44:12;52573.75;;;-144.43;100.00
37486;BME280;23341;50.296;18.960;2023-05-15T05:49:18;52613.75;;;-144.43;100.00
37486;BME280;23341;50.296;18.960;2023-05-15T05:54:22;52603.75;;;-144.43;100.00
37486;BME280;23341;50.296;18.960;2023-05-15T05:59:27;52553.72;;;-144.43;100.00
37486;BME280;23341;50.296;18.960;2023-05-15T06:04:33;52641.75;;;-144.43;100.00
37486;BME280;23341;50.296;18.960;2023-05-15T06:09:37;52637.75;;;-144.43;100.00
37486;BME280;23341;50.296;18.960;2023-05-15T06:14:42;52631.75;;;-144.43;100.00
37486;BME280;23341;50.296;18.960;2023-05-15T06:19:47;52645.75;;;-144.43;100.00
37486;BME280;23341;50.296;18.960;2023-05-15T06:24:51;52581.75;;;-144.43;100.00
37486;BME280;23341;50.296;18.960;2023-05-15T06:29:56;52623.75;;;-144.43;100.00
37486;BME280;23341;50.296;18.960;2023-05-15T06:35:02;52595.75;;;-144.43;100.00
37486;BME280;23341;50.296;18.960;2023-05-15T06:40:08;52625.75;;;-144.43;100.00
37486;BME280;23341;50.296;18.960;2023-05-15T06:45:12;52593.75;;;-144.43;100.00
37486;BME280;23341;50.296;18.960;2023-05-15T06:50:18;52607.75;;;-144.43;100.00
37486;BME280;23341;50.296;18.960;2023-05-15T06:55:22;52567.72;;;-144.43;100.00
37486;BME280;23341;50.296;18.960;2023-05-15T07:00:27;52619.75;;;-144.43;100.00
37486;BME280;23341;50.296;18.960;2023-05-15T07:05:33;52581.75;;;-144.43;100.00
37486;BME280;23341;50.296;18.960;2023-05-15T07:10:38;52609.75;;;-144.43;100.00
37486;BME280;23341;50.296;18.960;2023-05-15T07:15:42;52647.75;;;-144.43;100.00
37486;BME280;23341;50.296;18.960;2023-05-15T07:20:48;52625.75;;;-144.43;100.00
37486;BME280;23341;50.296;18.960;2023-05-15T07:25:53;52633.75;;;-144.43;100.00
37486;BME280;23341;50.296;18.960;2023-05-15T07:30:58;52607.75;;;-144.43;100.00
37486;BME280;23341;50.296;18.960;2023-05-15T07:36:06;52609.75;;;-144.43;100.00
37486;BME280;23341;50.296;18.960;2023-05-15T07:41:11;52619.75;;;-144.43;100.00
37486;BME280;23341;50.296;18.960;2023-05-15T07:46:15;52681.75;;;-144.43;100.00
37486;BME280;23341;50.296;18.960;2023-05-15T07:51:21;52625.75;;;-144.43;100.00
37486;BME280;23341;50.296;18.960;2023-05-15T07:56:25;52633.75;;;-144.43;100.00
37486;BME280;23341;50.296;18.960;2023-05-15T08:01:30;52699.75;;;-144.43;100.00
37486;BME280;23341;50.296;18.960;2023-05-15T08:06:36;52627.75;;;-144.43;100.00
37486;BME280;23341;50.296;18.960;2023-05-15T08:11:41;52637.75;;;-144.43;100.00
37486;BME280;23341;50.296;18.960;2023-05-15T08:16:45;52747.75;;;-144.43;100.00
37486;BME280;23341;50.296;18.960;2023-05-15T08:21:51;52667.75;;;-144.43;100.00
37486;BME280;23341;50.296;18.960;2023-05-15T08:26:56;52675.75;;;-144.43;100.00
37486;BME280;23341;50.296;18.960;2023-05-15T08:32:04;52681.75;;;-144.43;100.00
37486;BME280;23341;50.296;18.960;2023-05-15T08:37:09;52681.75;;;-144.43;100.00
37486;BME280;23341;50.296;18.960;2023-05-15T08:42:19;52747.75;;;-144.43;100.00
37486;BME280;23341;50.296;18.960;2023-05-15T08:47:26;52747.75;;;-144.43;100.00
37486;BME280;23341;50.296;18.960;2023-05-15T08:52:33;52729.75;;;-144.43;100.00
37486;BME280;23341;50.296;18.960;2023-05-15T08:57:38;52691.75;;;-144.43;100.00
37486;BME280;23341;50.296;18.960;2023-05-15T09:02:43;52749.75;;;-144.43;100.00
37486;BME280;23341;50.296;18.960;2023-05-15T09:07:50;52683.75;;;-144.43;100.00
37486;BME280;23341;50.296;18.960;2023-05-15T09:12:56;52753.75;;;-144.43;100.00
37486;BME280;23341;50.296;18.960;2023-05-15T09:18:02;52687.75;;;-144.43;100.00
37486;BME280;23341;50.296;18.960;2023-05-15T09:23:21;52681.75;;;-144.43;100.00
37486;BME280;23341;50.296;18.960;2023-05-15T09:28:28;52699.75;;;-144.43;100.00
37486;BME280;23341;50.296;18.960;2023-05-15T09:33:34;52689.75;;;-144.43;100.00
37486;BME280;23341;50.296;18.960;2023-05-15T09:38:41;52667.75;;;-144.43;100.00
37486;BME280;23341;50.296;18.960;2023-05-15T09:43:49;52687.75;;;-144.43;100.00
37486;BME280;23341;50.296;18.960;2023-05-15T09:48:54;52683.75;;;-144.43;100.00
37486;BME280;23341;50.296;18.960;2023-05-15T09:54:00;52717.75;;;-144.43;100.00
37486;BME280;23341;50.296;18.960;2023-05-15T09:59:04;52745.75;;;-144.43;100.00
37486;BME280;23341;50.296;18.960;2023-05-15T10:04:10;52673.75;;;-144.43;100.00
37486;BME280;23341;50.296;18.960;2023-05-15T10:09:15;52677.75;;;-144.43;100.00
37486;BME280;23341;50.296;18.960;2023-05-15T10:14:22;52665.75;;;-144.43;100.00
37486;BME280;23341;50.296;18.960;2023-05-15T10:19:27;52725.75;;;-144.43;100.00
37486;BME280;23341;50.296;18.960;2023-05-15T10:24:35;52721.75;;;-144.43;100.00
37486;BME280;23341;50.296;18.960;2023-05-15T10:29:42;52769.75;;;-144.43;100.00
37486;BME280;23341;50.296;18.960;2023-05-15T10:34:47;52781.78;;;-144.43;100.00
37486;BME280;23341;50.296;18.960;2023-05-15T10:39:55;52727.75;;;-144.43;100.00
37486;BME280;23341;50.296;18.960;2023-05-15T10:45:00;52661.75;;;-144.43;100.00
37486;BME280;23341;50.296;18.960;2023-05-15T10:50:06;52775.75;;;-144.43;100.00
37486;BME280;23341;50.296;18.960;2023-05-15T10:55:16;52865.78;;;-144.43;100.00
37486;BME280;23341;50.296;18.960;2023-05-15T11:00:24;52853.78;;;-144.43;100.00
37486;BME280;23341;50.296;18.960;2023-05-15T11:06:08;52841.78;;;-144.43;100.00
37486;BME280;23341;50.296;18.960;2023-05-15T11:17:06;52789.78;;;-144.43;100.00
37486;BME280;23341;50.296;18.960;2023-05-15T11:22:18;52717.75;;;-144.43;100.00
37486;BME280;23341;50.296;18.960;2023-05-15T11:27:25;52725.75;;;-144.43;100.00
37486;BME280;23341;50.296;18.960;2023-05-15T11:32:41;52737.75;;;-144.43;100.00
37486;BME280;23341;50.296;18.960;2023-05-15T11:37:47;52831.78;;;-144.43;100.00
37486;BME280;23341;50.296;18.960;2023-05-15T11:43:03;52849.78;;;-144.43;100.00
37486;BME280;23341;50.296;18.960;2023-05-15T11:48:12;52761.75;;;-144.43;100.00
37486;BME280;23341;50.296;18.960;2023-05-15T11:53:18;52681.75;;;-144.43;99.75
37486;BME280;23341;50.296;18.960;2023-05-15T11:58:24;52619.75;;;-144.43;100.00
37486;BME280;23341;50.296;18.960;2023-05-15T12:03:33;52671.75;;;-144.43;100.00
37486;BME280;23341;50.296;18.960;2023-05-15T12:08:38;52745.75;;;-144.43;100.00
37486;BME280;23341;50.296;18.960;2023-05-15T12:13:44;52603.75;;;-144.43;100.00
37486;BME280;23341;50.296;18.960;2023-05-15T12:18:49;52713.75;;;-144.43;100.00
37486;BME280;23341;50.296;18.960;2023-05-15T12:23:54;52731.75;;;-144.43;100.00
37486;BME280;23341;50.296;18.960;2023-05-15T12:29:09;52757.75;;;-144.43;98.25
37486;BME280;23341;50.296;18.960;2023-05-15T12:34:15;52789.78;;;-144.43;95.21
37486;BME280;23341;50.296;18.960;2023-05-15T12:39:20;52809.78;;;-144.43;95.04
37486;BME280;23341;50.296;18.960;2023-05-15T12:44:24;52657.75;;;-144.43;96.54
37486;BME280;23341;50.296;18.960;2023-05-15T12:49:34;52533.72;;;-144.43;99.91
37486;BME280;23341;50.296;18.960;2023-05-15T12:54:39;52567.72;;;-144.43;99.04
37486;BME280;23341;50.296;18.960;2023-05-15T12:59:44;52765.75;;;-144.43;96.87
37486;BME280;23341;50.296;18.960;2023-05-15T13:04:50;52841.78;;;-144.43;93.68
37486;BME280;23341;50.296;18.960;2023-05-15T13:10:07;52603.75;;;-144.43;94.50
37486;BME280;23341;50.296;18.960;2023-05-15T13:15:23;52535.72;;;-144.43;95.02
37486;BME280;23341;50.296;18.960;2023-05-15T13:20:32;52501.72;;;-144.43;89.89
37486;BME280;23341;50.296;18.960;2023-05-15T13:25:37;52375.72;;;-144.43;88.42
37486;BME280;23341;50.296;18.960;2023-05-15T13:30:41;52219.72;;;-144.43;89.92
37486;BME280;23341;50.296;18.960;2023-05-15T13:35:50;52245.72;;;-144.43;88.64
37486;BME280;23341;50.296;18.960;2023-05-15T13:40:55;52239.72;;;-144.43;87.61
37486;BME280;23341;50.296;18.960;2023-05-15T13:45:59;52313.72;;;-144.43;84.12
37486;BME280;23341;50.296;18.960;2023-05-15T13:51:05;52331.72;;;-144.43;84.86
37486;BME280;23341;50.296;18.960;2023-05-15T13:56:09;52593.75;;;-144.43;77.48
37486;BME280;23341;50.296;18.960;2023-05-15T14:01:13;52415.72;;;-144.43;81.82
37486;BME280;23341;50.296;18.960;2023-05-15T14:06:19;52673.75;;;-144.43;65.10
37486;BME280;23341;50.296;18.960;2023-05-15T14:11:23;52221.72;;;-144.43;73.06
37486;BME280;23341;50.296;18.960;2023-05-15T14:16:27;52211.72;;;-144.43;73.01
37486;BME280;23341;50.296;18.960;2023-05-15T14:21:34;52077.69;;;-144.43;77.44
37486;BME280;23341;50.296;18.960;2023-05-15T14:26:38;52135.69;;;-144.43;76.25
37486;BME280;23341;50.296;18.960;2023-05-15T14:31:43;52459.72;;;-144.43;72.29
37486;BME280;23341;50.296;18.960;2023-05-15T14:36:48;52727.75;;;-144.43;63.63
37486;BME280;23341;50.296;18.960;2023-05-15T14:41:53;52259.72;;;-144.43;70.49
37486;BME280;23341;50.296;18.960;2023-05-15T14:47:07;52113.69;;;-144.43;72.21
37486;BME280;23341;50.296;18.960;2023-05-15T14:52:13;51901.72;;;-144.43;74.71
37486;BME280;23341;50.296;18.960;2023-05-15T14:57:17;52211.72;;;-144.43;69.41
37486;BME280;23341;50.296;18.960;2023-05-15T15:02:22;52159.69;;;-144.43;69.10
37486;BME280;23341;50.296;18.960;2023-05-15T15:07:28;52113.69;;;-144.43;66.55
37486;BME280;23341;50.296;18.960;2023-05-15T15:12:33;52057.69;;;-144.43;70.25
37486;BME280;23341;50.296;18.960;2023-05-15T15:17:37;52037.69;;;-144.43;70.39
37486;BME280;23341;50.296;18.960;2023-05-15T15:22:43;52281.72;;;-144.43;65.42
37486;BME280;23341;50.296;18.960;2023-05-15T15:27:48;52321.72;;;-144.43;65.28
37486;BME280;23341;50.296;18.960;2023-05-15T15:32:52;52497.72;;;-144.43;63.34
37486;BME280;23341;50.296;18.960;2023-05-15T15:37:59;51897.72;;;-144.43;71.44
37486;BME280;23341;50.296;18.960;2023-05-15T15:43:04;51815.72;;;-144.43;74.98
37486;BME280;23341;50.296;18.960;2023-05-15T15:48:08;51717.72;;;-144.43;77.41
37486;BME280;23341;50.296;18.960;2023-05-15T15:53:14;51777.72;;;-144.43;77.99
37486;BME280;23341;50.296;18.960;2023-05-15T15:58:18;51721.72;;;-144.43;79.92
37486;BME280;23341;50.296;18.960;2023-05-15T16:03:22;51721.72;;;-144.43;80.85
37486;BME280;23341;50.296;18.960;2023-05-15T16:08:29;51773.72;;;-144.43;82.09
37486;BME280;23341;50.296;18.960;2023-05-15T16:13:33;51805.72;;;-144.43;81.51
37486;BME280;23341;50.296;18.960;2023-05-15T16:18:37;51743.72;;;-144.43;82.29
37486;BME280;23341;50.296;18.960;2023-05-15T16:23:43;51807.72;;;-144.43;82.95
37486;BME280;23341;50.296;18.960;2023-05-15T16:28:48;51733.72;;;-144.43;82.81
37486;BME280;23341;50.296;18.960;2023-05-15T16:33:52;51677.72;;;-144.43;83.98
37486;BME280;23341;50.296;18.960;2023-05-15T16:38:59;51697.72;;;-144.43;83.63
37486;BME280;23341;50.296;18.960;2023-05-15T16:44:03;51753.72;;;-144.43;81.78
37486;BME280;23341;50.296;18.960;2023-05-15T16:49:12;51649.72;;;-144.43;80.51
37486;BME280;23341;50.296;18.960;2023-05-15T16:54:18;51603.72;;;-144.43;81.71
37486;BME280;23341;50.296;18.960;2023-05-15T16:59:22;51605.72;;;-144.43;82.65
37486;BME280;23341;50.296;18.960;2023-05-15T17:04:27;51601.72;;;-144.43;82.66
37486;BME280;23341;50.296;18.960;2023-05-15T17:09:36;51547.75;;;-144.43;84.74
37486;BME280;23341;50.296;18.960;2023-05-15T17:14:42;51545.75;;;-144.43;82.94
37486;BME280;23341;50.296;18.960;2023-05-15T17:19:46;51589.72;;;-144.43;83.26
37486;BME280;23341;50.296;18.960;2023-05-15T17:24:52;51513.75;;;-144.43;83.71
37486;BME280;23341;50.296;18.960;2023-05-15T17:29:56;51505.75;;;-144.43;81.34
37486;BME280;23341;50.296;18.960;2023-05-15T17:35:00;51479.75;;;-144.43;81.14
37486;BME280;23341;50.296;18.960;2023-05-15T17:40:07;51435.75;;;-144.43;80.79
37486;BME280;23341;50.296;18.960;2023-05-15T17:45:12;51429.75;;;-144.43;81.42
37486;BME280;23341;50.296;18.960;2023-05-15T17:50:16;51449.75;;;-144.43;82.70
37486;BME280;23341;50.296;18.960;2023-05-15T17:55:22;51433.75;;;-144.43;84.43
37486;BME280;23341;50.296;18.960;2023-05-15T18:00:27;51445.75;;;-144.43;85.80
37486;BME280;23341;50.296;18.960;2023-05-15T18:05:31;51413.75;;;-144.43;83.76
37486;BME280;23341;50.296;18.960;2023-05-15T18:10:37;51395.75;;;-144.43;84.81
37486;BME280;23341;50.296;18.960;2023-05-15T18:15:42;51387.75;;;-144.43;86.38
37486;BME280;23341;50.296;18.960;2023-05-15T18:20:46;51393.75;;;-144.43;87.43
37486;BME280;23341;50.296;18.960;2023-05-15T18:25:52;51351.75;;;-144.43;89.79
37486;BME280;23341;50.296;18.960;2023-05-15T18:30:56;51373.75;;;-144.43;91.94
37486;BME280;23341;50.296;18.960;2023-05-15T18:36:01;51377.75;;;-144.43;93.17
37486;BME280;23341;50.296;18.960;2023-05-15T18:41:10;51391.75;;;-144.43;93.51
37486;BME280;23341;50.296;18.960;2023-05-15T18:46:14;51451.75;;;-144.43;95.60
37486;BME280;23341;50.296;18.960;2023-05-15T18:51:19;51487.75;;;-144.43;95.98
37486;BME280;23341;50.296;18.960;2023-05-15T18:56:25;51503.75;;;-144.43;100.00
37486;BME280;23341;50.296;18.960;2023-05-15T19:01:30;51573.72;;;-144.43;98.97
37486;BME280;23341;50.296;18.960;2023-05-15T19:06:34;51583.72;;;-144.43;98.69
37486;BME280;23341;50.296;18.960;2023-05-15T19:11:40;51579.72;;;-144.43;97.95
37486;BME280;23341;50.296;18.960;2023-05-15T19:16:44;51579.72;;;-144.43;99.90
37486;BME280;23341;50.296;18.960;2023-05-15T19:21:49;51599.72;;;-144.43;99.98
37486;BME280;23341;50.296;18.960;2023-05-15T19:26:55;51637.72;;;-144.43;99.50
37486;BME280;23341;50.296;18.960;2023-05-15T19:31:59;51603.72;;;-144.43;100.00
37486;BME280;23341;50.296;18.960;2023-05-15T19:37:04;51659.72;;;-144.43;100.00
37486;BME280;23341;50.296;18.960;2023-05-15T19:42:10;51609.72;;;-144.43;100.00
37486;BME280;23341;50.296;18.960;2023-05-15T19:47:14;51617.72;;;-144.43;100.00
37486;BME280;23341;50.296;18.960;2023-05-15T19:52:19;51661.72;;;-144.43;100.00
37486;BME280;23341;50.296;18.960;2023-05-15T19:57:24;51699.72;;;-144.43;100.00
37486;BME280;23341;50.296;18.960;2023-05-15T20:02:29;51667.72;;;-144.43;100.00
37486;BME280;23341;50.296;18.960;2023-05-15T20:07:33;51687.72;;;-144.43;100.00
37486;BME280;23341;50.296;18.960;2023-05-15T20:12:40;51717.72;;;-144.43;100.00
37486;BME280;23341;50.296;18.960;2023-05-15T20:17:44;51755.72;;;-144.43;100.00
37486;BME280;23341;50.296;18.960;2023-05-15T20:22:48;51745.72;;;-144.43;100.00
37486;BME280;23341;50.296;18.960;2023-05-15T20:27:54;51743.72;;;-144.43;100.00
37486;BME280;23341;50.296;18.960;2023-05-15T20:33:01;51759.72;;;-144.43;100.00
37486;BME280;23341;50.296;18.960;2023-05-15T20:38:06;51809.72;;;-144.43;100.00
37486;BME280;23341;50.296;18.960;2023-05-15T20:43:12;51813.72;;;-144.43;100.00
37486;BME280;23341;50.296;18.960;2023-05-15T20:48:16;51909.72;;;-144.43;100.00
37486;BME280;23341;50.296;18.960;2023-05-15T20:53:20;51941.72;;;-144.43;100.00
37486;BME280;23341;50.296;18.960;2023-05-15T20:58:26;51991.69;;;-144.43;100.00
37486;BME280;23341;50.296;18.960;2023-05-15T21:03:30;52041.69;;;-144.43;100.00
37486;BME280;23341;50.296;18.960;2023-05-15T21:08:35;52057.69;;;-144.43;100.00
37486;BME280;23341;50.296;18.960;2023-05-15T21:13:40;52085.69;;;-144.43;100.00
37486;BME280;23341;50.296;18.960;2023-05-15T21:18:45;52075.69;;;-144.43;100.00
37486;BME280;23341;50.296;18.960;2023-05-15T21:23:50;52117.69;;;-144.43;100.00
37486;BME280;23341;50.296;18.960;2023-05-15T21:28:57;52133.69;;;-144.43;100.00
37486;BME280;23341;50.296;18.960;2023-05-15T21:34:01;52071.69;;;-144.43;100.00
37486;BME280;23341;50.296;18.960;2023-05-15T21:39:10;52149.69;;;-144.43;100.00
37486;BME280;23341;50.296;18.960;2023-05-15T21:44:16;52129.69;;;-144.43;100.00
37486;BME280;23341;50.296;18.960;2023-05-15T21:49:20;52127.69;;;-144.43;100.00
37486;BME280;23341;50.296;18.960;2023-05-15T21:54:24;52137.69;;;-144.43;100.00
37486;BME280;23341;50.296;18.960;2023-05-15T21:59:30;52161.69;;;-144.43;100.00
37486;BME280;23341;50.296;18.960;2023-05-15T22:04:34;52135.69;;;-144.43;100.00
37486;BME280;23341;50.296;18.960;2023-05-15T22:09:39;52145.69;;;-144.43;100.00
37486;BME280;23341;50.296;18.960;2023-05-15T22:14:45;52213.72;;;-144.43;100.00
37486;BME280;23341;50.296;18.960;2023-05-15T22:20:02;52131.69;;;-144.43;100.00
37486;BME280;23341;50.296;18.960;2023-05-15T22:25:13;52137.69;;;-144.43;100.00
37486;BME280;23341;50.296;18.960;2023-05-15T22:30:19;52173.69;;;-144.43;100.00
37486;BME280;23341;50.296;18.960;2023-05-15T22:35:23;52201.69;;;-144.43;100.00
37486;BME280;23341;50.296;18.960;2023-05-15T22:40:29;52205.69;;;-144.43;100.00
37486;BME280;23341;50.296;18.960;2023-05-15T22:45:34;52181.69;;;-144.43;100.00
37486;BME280;23341;50.296;18.960;2023-05-15T22:50:39;52193.72;;;-144.43;100.00
37486;BME280;23341;50.296;18.960;2023-05-15T22:55:43;52225.72;;;-144.43;100.00
37486;BME280;23341;50.296;18.960;2023-05-15T23:00:49;52225.72;;;-144.43;100.00
37486;BME280;23341;50.296;18.960;2023-05-15T23:05:54;52189.72;;;-144.43;100.00
37486;BME280;23341;50.296;18.960;2023-05-15T23:10:58;52217.72;;;-144.43;100.00
37486;BME280;23341;50.296;18.960;2023-05-15T23:16:04;52237.72;;;-144.43;100.00
37486;BME280;23341;50.296;18.960;2023-05-15T23:21:08;52201.69;;;-144.43;100.00
37486;BME280;23341;50.296;18.960;2023-05-15T23:26:13;52181.69;;;-144.43;100.00
37486;BME280;23341;50.296;18.960;2023-05-15T23:31:18;52149.69;;;-144.43;100.00
37486;BME280;23341;50.296;18.960;2023-05-15T23:36:23;52201.69;;;-144.43;100.00
37486;BME280;23341;50.296;18.960;2023-05-15T23:41:27;52205.69;;;-144.43;100.00
37486;BME280;23341;50.296;18.960;2023-05-15T23:46:33;52183.69;;;-144.43;100.00
37486;BME280;23341;50.296;18.960;2023-05-15T23:51:38;52169.72;;;-144.43;100.00
37486;BME280;23341;50.296;18.960;2023-05-15T23:56:42;52173.69;;;-144.43;100.00
